sensor_id;sensor_type;location;lat;lon;timestamp;P1;durP1;ratioP1;P2;durP2;ratioP2
59998;SDS011;45859;51.378;6.736;2022-12-29T00:00:04;0.60;;;0.40;;
59998;SDS011;45859;51.378;6.736;2022-12-29T00:02:31;0.40;;;0.40;;
59998;SDS011;45859;51.378;6.736;2022-12-29T00:04:56;0.40;;;0.40;;
59998;SDS011;45859;51.378;6.736;2022-12-29T00:07:22;0.83;;;0.40;;
59998;SDS011;45859;51.378;6.736;2022-12-29T00:09:48;1.17;;;0.43;;
59998;SDS011;45859;51.378;6.736;2022-12-29T00:12:13;0.40;;;0.30;;
59998;SDS011;45859;51.378;6.736;2022-12-29T00:14:39;0.57;;;0.57;;
59998;SDS011;45859;51.378;6.736;2022-12-29T00:17:23;1.60;;;0.57;;
59998;SDS011;45859;51.378;6.736;2022-12-29T00:19:48;0.57;;;0.40;;
59998;SDS011;45859;51.378;6.736;2022-12-29T00:22:32;0.43;;;0.40;;
59998;SDS011;45859;51.378;6.736;2022-12-29T00:25:17;0.73;;;0.40;;
59998;SDS011;45859;51.378;6.736;2022-12-29T00:28:01;0.50;;;0.30;;
59998;SDS011;45859;51.378;6.736;2022-12-29T00:30:45;0.40;;;0.33;;
59998;SDS011;45859;51.378;6.736;2022-12-29T00:33:29;0.30;;;0.30;;
59998;SDS011;45859;51.378;6.736;2022-12-29T00:38:42;0.67;;;0.40;;
59998;SDS011;45859;51.378;6.736;2022-12-29T00:41:32;1.57;;;0.40;;
59998;SDS011;45859;51.378;6.736;2022-12-29T00:44:16;0.20;;;0.20;;
59998;SDS011;45859;51.378;6.736;2022-12-29T00:46:42;0.33;;;0.33;;
59998;SDS011;45859;51.378;6.736;2022-12-29T00:49:10;0.87;;;0.40;;
59998;SDS011;45859;51.378;6.736;2022-12-29T00:51:56;0.90;;;0.43;;
59998;SDS011;45859;51.378;6.736;2022-12-29T00:54:42;0.57;;;0.40;;
59998;SDS011;45859;51.378;6.736;2022-12-29T00:57:09;0.47;;;0.40;;
59998;SDS011;45859;51.378;6.736;2022-12-29T00:59:36;1.20;;;0.30;;
59998;SDS011;45859;51.378;6.736;2022-12-29T01:02:02;0.30;;;0.30;;
59998;SDS011;45859;51.378;6.736;2022-12-29T01:04:28;1.13;;;0.30;;
59998;SDS011;45859;51.378;6.736;2022-12-29T01:06:54;0.50;;;0.50;;
59998;SDS011;45859;51.378;6.736;2022-12-29T01:09:19;0.30;;;0.30;;
59998;SDS011;45859;51.378;6.736;2022-12-29T01:12:04;0.33;;;0.30;;
59998;SDS011;45859;51.378;6.736;2022-12-29T01:14:31;1.03;;;0.40;;
59998;SDS011;45859;51.378;6.736;2022-12-29T01:16:56;0.30;;;0.20;;
59998;SDS011;45859;51.378;6.736;2022-12-29T01:19:23;0.20;;;0.20;;
59998;SDS011;45859;51.378;6.736;2022-12-29T01:21:49;0.50;;;0.30;;
59998;SDS011;45859;51.378;6.736;2022-12-29T01:24:15;1.17;;;0.30;;
59998;SDS011;45859;51.378;6.736;2022-12-29T01:26:42;0.30;;;0.30;;
59998;SDS011;45859;51.378;6.736;2022-12-29T01:29:08;0.27;;;0.20;;
59998;SDS011;45859;51.378;6.736;2022-12-29T01:31:34;0.77;;;0.30;;
59998;SDS011;45859;51.378;6.736;2022-12-29T01:34:00;0.20;;;0.17;;
59998;SDS011;45859;51.378;6.736;2022-12-29T01:36:26;1.83;;;0.33;;
59998;SDS011;45859;51.378;6.736;2022-12-29T01:38:51;0.40;;;0.30;;
59998;SDS011;45859;51.378;6.736;2022-12-29T01:41:17;0.67;;;0.30;;
59998;SDS011;45859;51.378;6.736;2022-12-29T01:43:44;1.10;;;0.20;;
59998;SDS011;45859;51.378;6.736;2022-12-29T01:51:47;0.23;;;0.10;;
59998;SDS011;45859;51.378;6.736;2022-12-29T01:54:27;0.87;;;0.20;;
59998;SDS011;45859;51.378;6.736;2022-12-29T01:56:57;0.47;;;0.27;;
59998;SDS011;45859;51.378;6.736;2022-12-29T01:59:27;0.50;;;0.20;;
59998;SDS011;45859;51.378;6.736;2022-12-29T02:01:56;0.15;;;0.15;;
59998;SDS011;45859;51.378;6.736;2022-12-29T02:04:23;0.53;;;0.30;;
59998;SDS011;45859;51.378;6.736;2022-12-29T02:06:53;0.40;;;0.20;;
59998;SDS011;45859;51.378;6.736;2022-12-29T02:09:22;0.20;;;0.20;;
59998;SDS011;45859;51.378;6.736;2022-12-29T02:11:48;1.47;;;0.20;;
59998;SDS011;45859;51.378;6.736;2022-12-29T02:14:14;0.80;;;0.30;;
59998;SDS011;45859;51.378;6.736;2022-12-29T02:16:44;1.13;;;0.40;;
59998;SDS011;45859;51.378;6.736;2022-12-29T02:22:27;1.10;;;0.30;;
59998;SDS011;45859;51.378;6.736;2022-12-29T02:27:40;1.27;;;0.47;;
59998;SDS011;45859;51.378;6.736;2022-12-29T02:39:30;0.80;;;0.47;;
59998;SDS011;45859;51.378;6.736;2022-12-29T02:44:56;0.87;;;0.40;;
59998;SDS011;45859;51.378;6.736;2022-12-29T02:47:48;0.67;;;0.50;;
59998;SDS011;45859;51.378;6.736;2022-12-29T02:50:20;3.73;;;0.70;;
59998;SDS011;45859;51.378;6.736;2022-12-29T02:53:07;1.47;;;0.43;;
59998;SDS011;45859;51.378;6.736;2022-12-29T02:55:36;1.63;;;0.70;;
59998;SDS011;45859;51.378;6.736;2022-12-29T03:00:33;2.47;;;0.57;;
59998;SDS011;45859;51.378;6.736;2022-12-29T03:11:04;1.77;;;0.60;;
59998;SDS011;45859;51.378;6.736;2022-12-29T03:13:56;3.10;;;0.80;;
59998;SDS011;45859;51.378;6.736;2022-12-29T03:16:50;1.20;;;0.60;;
59998;SDS011;45859;51.378;6.736;2022-12-29T03:19:37;0.63;;;0.40;;
59998;SDS011;45859;51.378;6.736;2022-12-29T03:22:07;0.90;;;0.50;;
59998;SDS011;45859;51.378;6.736;2022-12-29T03:24:57;1.20;;;0.50;;
59998;SDS011;45859;51.378;6.736;2022-12-29T03:27:28;1.27;;;0.55;;
59998;SDS011;45859;51.378;6.736;2022-12-29T03:29:57;1.38;;;0.50;;
59998;SDS011;45859;51.378;6.736;2022-12-29T03:32:28;1.50;;;0.25;;
59998;SDS011;45859;51.378;6.736;2022-12-29T03:34:58;1.40;;;0.40;;
59998;SDS011;45859;51.378;6.736;2022-12-29T03:37:26;1.17;;;0.40;;
59998;SDS011;45859;51.378;6.736;2022-12-29T03:39:56;1.17;;;0.40;;
59998;SDS011;45859;51.378;6.736;2022-12-29T03:42:23;1.47;;;0.50;;
59998;SDS011;45859;51.378;6.736;2022-12-29T03:44:53;1.27;;;0.40;;
59998;SDS011;45859;51.378;6.736;2022-12-29T03:47:21;1.23;;;0.50;;
59998;SDS011;45859;51.378;6.736;2022-12-29T03:49:47;0.97;;;0.20;;
59998;SDS011;45859;51.378;6.736;2022-12-29T03:52:14;1.00;;;0.30;;
59998;SDS011;45859;51.378;6.736;2022-12-29T03:54:40;1.87;;;0.50;;
59998;SDS011;45859;51.378;6.736;2022-12-29T03:57:06;0.90;;;0.40;;
59998;SDS011;45859;51.378;6.736;2022-12-29T03:59:33;0.60;;;0.20;;
59998;SDS011;45859;51.378;6.736;2022-12-29T04:01:58;1.57;;;0.40;;
59998;SDS011;45859;51.378;6.736;2022-12-29T04:04:24;1.00;;;0.40;;
59998;SDS011;45859;51.378;6.736;2022-12-29T04:06:49;1.60;;;0.40;;
59998;SDS011;45859;51.378;6.736;2022-12-29T04:09:15;1.03;;;0.30;;
59998;SDS011;45859;51.378;6.736;2022-12-29T04:11:40;1.20;;;0.40;;
59998;SDS011;45859;51.378;6.736;2022-12-29T04:14:06;0.73;;;0.40;;
59998;SDS011;45859;51.378;6.736;2022-12-29T04:16:32;1.27;;;0.40;;
59998;SDS011;45859;51.378;6.736;2022-12-29T04:19:00;0.83;;;0.33;;
59998;SDS011;45859;51.378;6.736;2022-12-29T04:21:26;0.60;;;0.50;;
59998;SDS011;45859;51.378;6.736;2022-12-29T04:23:52;0.30;;;0.20;;
59998;SDS011;45859;51.378;6.736;2022-12-29T04:26:17;0.57;;;0.40;;
59998;SDS011;45859;51.378;6.736;2022-12-29T04:28:43;0.93;;;0.30;;
59998;SDS011;45859;51.378;6.736;2022-12-29T04:31:09;0.80;;;0.40;;
59998;SDS011;45859;51.378;6.736;2022-12-29T04:33:34;1.30;;;0.30;;
59998;SDS011;45859;51.378;6.736;2022-12-29T04:36:00;2.20;;;0.40;;
59998;SDS011;45859;51.378;6.736;2022-12-29T04:38:25;1.30;;;0.40;;
59998;SDS011;45859;51.378;6.736;2022-12-29T04:40:51;1.33;;;0.43;;
59998;SDS011;45859;51.378;6.736;2022-12-29T04:43:17;2.60;;;0.33;;
59998;SDS011;45859;51.378;6.736;2022-12-29T04:45:52;1.77;;;0.50;;
59998;SDS011;45859;51.378;6.736;2022-12-29T04:48:17;2.30;;;0.50;;
59998;SDS011;45859;51.378;6.736;2022-12-29T04:50:43;3.33;;;0.90;;
59998;SDS011;45859;51.378;6.736;2022-12-29T04:53:09;6.73;;;0.70;;
59998;SDS011;45859;51.378;6.736;2022-12-29T04:55:34;3.43;;;0.77;;
59998;SDS011;45859;51.378;6.736;2022-12-29T04:58:00;3.47;;;0.70;;
59998;SDS011;45859;51.378;6.736;2022-12-29T05:00:26;5.40;;;0.87;;
59998;SDS011;45859;51.378;6.736;2022-12-29T05:02:51;4.10;;;1.10;;
59998;SDS011;45859;51.378;6.736;2022-12-29T05:05:17;2.17;;;0.83;;
59998;SDS011;45859;51.378;6.736;2022-12-29T05:07:43;6.17;;;1.00;;
59998;SDS011;45859;51.378;6.736;2022-12-29T05:10:09;6.80;;;1.27;;
59998;SDS011;45859;51.378;6.736;2022-12-29T05:12:36;2.87;;;0.60;;
59998;SDS011;45859;51.378;6.736;2022-12-29T05:15:03;4.20;;;0.60;;
59998;SDS011;45859;51.378;6.736;2022-12-29T05:17:30;3.80;;;0.93;;
59998;SDS011;45859;51.378;6.736;2022-12-29T05:19:56;2.70;;;0.97;;
59998;SDS011;45859;51.378;6.736;2022-12-29T05:22:22;7.47;;;1.40;;
59998;SDS011;45859;51.378;6.736;2022-12-29T05:24:48;13.77;;;2.10;;
59998;SDS011;45859;51.378;6.736;2022-12-29T05:27:13;8.03;;;2.60;;
59998;SDS011;45859;51.378;6.736;2022-12-29T05:29:39;11.60;;;3.97;;
59998;SDS011;45859;51.378;6.736;2022-12-29T05:32:05;13.00;;;3.60;;
59998;SDS011;45859;51.378;6.736;2022-12-29T05:34:31;19.07;;;8.30;;
59998;SDS011;45859;51.378;6.736;2022-12-29T05:36:56;14.37;;;6.13;;
59998;SDS011;45859;51.378;6.736;2022-12-29T05:39:22;13.07;;;4.93;;
59998;SDS011;45859;51.378;6.736;2022-12-29T05:41:48;12.90;;;4.83;;
59998;SDS011;45859;51.378;6.736;2022-12-29T05:44:13;9.53;;;3.70;;
59998;SDS011;45859;51.378;6.736;2022-12-29T05:46:39;11.50;;;5.07;;
59998;SDS011;45859;51.378;6.736;2022-12-29T05:49:05;11.17;;;4.43;;
59998;SDS011;45859;51.378;6.736;2022-12-29T05:51:31;9.17;;;3.23;;
59998;SDS011;45859;51.378;6.736;2022-12-29T05:53:56;9.90;;;3.20;;
59998;SDS011;45859;51.378;6.736;2022-12-29T05:56:22;11.27;;;2.70;;
59998;SDS011;45859;51.378;6.736;2022-12-29T05:58:48;8.50;;;2.97;;
59998;SDS011;45859;51.378;6.736;2022-12-29T06:01:14;9.30;;;4.10;;
59998;SDS011;45859;51.378;6.736;2022-12-29T06:03:39;7.37;;;1.93;;
59998;SDS011;45859;51.378;6.736;2022-12-29T06:06:05;4.67;;;1.80;;
59998;SDS011;45859;51.378;6.736;2022-12-29T06:08:31;5.77;;;1.53;;
59998;SDS011;45859;51.378;6.736;2022-12-29T06:10:56;4.07;;;1.23;;
59998;SDS011;45859;51.378;6.736;2022-12-29T06:13:22;2.90;;;1.00;;
59998;SDS011;45859;51.378;6.736;2022-12-29T06:15:48;2.50;;;1.03;;
59998;SDS011;45859;51.378;6.736;2022-12-29T06:18:14;2.90;;;0.80;;
59998;SDS011;45859;51.378;6.736;2022-12-29T06:20:40;2.93;;;1.20;;
59998;SDS011;45859;51.378;6.736;2022-12-29T06:23:06;5.97;;;1.30;;
59998;SDS011;45859;51.378;6.736;2022-12-29T06:25:31;3.93;;;0.90;;
59998;SDS011;45859;51.378;6.736;2022-12-29T06:27:58;4.27;;;1.20;;
59998;SDS011;45859;51.378;6.736;2022-12-29T06:30:24;3.50;;;1.50;;
59998;SDS011;45859;51.378;6.736;2022-12-29T06:32:52;4.90;;;1.70;;
59998;SDS011;45859;51.378;6.736;2022-12-29T06:35:19;8.50;;;1.87;;
59998;SDS011;45859;51.378;6.736;2022-12-29T06:37:47;12.40;;;3.90;;
59998;SDS011;45859;51.378;6.736;2022-12-29T06:40:13;5.03;;;1.37;;
59998;SDS011;45859;51.378;6.736;2022-12-29T06:42:41;7.97;;;2.50;;
59998;SDS011;45859;51.378;6.736;2022-12-29T06:45:06;3.30;;;1.10;;
59998;SDS011;45859;51.378;6.736;2022-12-29T06:47:32;4.17;;;1.00;;
59998;SDS011;45859;51.378;6.736;2022-12-29T06:49:59;2.93;;;1.30;;
59998;SDS011;45859;51.378;6.736;2022-12-29T06:52:24;6.03;;;1.10;;
59998;SDS011;45859;51.378;6.736;2022-12-29T06:54:50;3.87;;;1.20;;
59998;SDS011;45859;51.378;6.736;2022-12-29T06:57:16;3.20;;;0.80;;
59998;SDS011;45859;51.378;6.736;2022-12-29T06:59:41;4.93;;;1.00;;
59998;SDS011;45859;51.378;6.736;2022-12-29T07:02:09;2.33;;;0.80;;
59998;SDS011;45859;51.378;6.736;2022-12-29T07:04:35;2.83;;;0.83;;
59998;SDS011;45859;51.378;6.736;2022-12-29T07:07:01;2.90;;;0.90;;
59998;SDS011;45859;51.378;6.736;2022-12-29T07:09:26;5.33;;;0.80;;
59998;SDS011;45859;51.378;6.736;2022-12-29T07:11:52;3.43;;;0.60;;
59998;SDS011;45859;51.378;6.736;2022-12-29T07:14:18;3.20;;;0.93;;
59998;SDS011;45859;51.378;6.736;2022-12-29T07:16:43;1.90;;;0.70;;
59998;SDS011;45859;51.378;6.736;2022-12-29T07:19:09;2.30;;;0.70;;
59998;SDS011;45859;51.378;6.736;2022-12-29T07:21:35;2.90;;;0.97;;
59998;SDS011;45859;51.378;6.736;2022-12-29T07:24:00;5.00;;;1.30;;
59998;SDS011;45859;51.378;6.736;2022-12-29T07:26:26;7.43;;;1.37;;
59998;SDS011;45859;51.378;6.736;2022-12-29T07:28:52;5.17;;;1.03;;
59998;SDS011;45859;51.378;6.736;2022-12-29T07:31:18;6.67;;;1.30;;
59998;SDS011;45859;51.378;6.736;2022-12-29T07:33:47;6.50;;;1.50;;
59998;SDS011;45859;51.378;6.736;2022-12-29T07:36:14;8.93;;;3.00;;
59998;SDS011;45859;51.378;6.736;2022-12-29T07:38:40;9.03;;;3.50;;
59998;SDS011;45859;51.378;6.736;2022-12-29T07:41:07;6.43;;;2.77;;
59998;SDS011;45859;51.378;6.736;2022-12-29T07:43:35;7.03;;;2.03;;
59998;SDS011;45859;51.378;6.736;2022-12-29T07:46:04;4.37;;;1.20;;
59998;SDS011;45859;51.378;6.736;2022-12-29T07:48:29;7.50;;;1.50;;
59998;SDS011;45859;51.378;6.736;2022-12-29T07:50:55;4.63;;;1.00;;
59998;SDS011;45859;51.378;6.736;2022-12-29T07:53:21;7.80;;;2.00;;
59998;SDS011;45859;51.378;6.736;2022-12-29T07:55:47;26.93;;;11.10;;
59998;SDS011;45859;51.378;6.736;2022-12-29T07:58:12;6.50;;;1.93;;
59998;SDS011;45859;51.378;6.736;2022-12-29T08:00:38;9.57;;;2.17;;
59998;SDS011;45859;51.378;6.736;2022-12-29T08:03:04;5.87;;;1.80;;
59998;SDS011;45859;51.378;6.736;2022-12-29T08:05:30;8.47;;;2.10;;
59998;SDS011;45859;51.378;6.736;2022-12-29T08:07:57;8.13;;;1.57;;
59998;SDS011;45859;51.378;6.736;2022-12-29T08:10:22;8.33;;;1.90;;
59998;SDS011;45859;51.378;6.736;2022-12-29T08:12:48;7.67;;;1.67;;
59998;SDS011;45859;51.378;6.736;2022-12-29T08:15:14;10.63;;;3.53;;
59998;SDS011;45859;51.378;6.736;2022-12-29T08:17:39;21.07;;;8.27;;
59998;SDS011;45859;51.378;6.736;2022-12-29T08:20:05;8.53;;;2.00;;
59998;SDS011;45859;51.378;6.736;2022-12-29T08:22:31;10.03;;;2.90;;
59998;SDS011;45859;51.378;6.736;2022-12-29T08:24:57;6.40;;;1.77;;
59998;SDS011;45859;51.378;6.736;2022-12-29T08:27:22;8.17;;;1.90;;
59998;SDS011;45859;51.378;6.736;2022-12-29T08:29:48;9.20;;;1.50;;
59998;SDS011;45859;51.378;6.736;2022-12-29T08:32:14;5.63;;;1.23;;
59998;SDS011;45859;51.378;6.736;2022-12-29T08:34:40;8.93;;;1.43;;
59998;SDS011;45859;51.378;6.736;2022-12-29T08:37:06;7.60;;;1.47;;
59998;SDS011;45859;51.378;6.736;2022-12-29T08:39:31;7.03;;;1.33;;
59998;SDS011;45859;51.378;6.736;2022-12-29T08:41:57;7.70;;;1.47;;
59998;SDS011;45859;51.378;6.736;2022-12-29T08:44:22;5.37;;;1.10;;
59998;SDS011;45859;51.378;6.736;2022-12-29T08:46:48;6.93;;;2.33;;
59998;SDS011;45859;51.378;6.736;2022-12-29T08:49:14;8.77;;;2.53;;
59998;SDS011;45859;51.378;6.736;2022-12-29T08:51:39;8.83;;;1.90;;
59998;SDS011;45859;51.378;6.736;2022-12-29T08:54:05;7.23;;;2.60;;
59998;SDS011;45859;51.378;6.736;2022-12-29T08:56:31;6.87;;;1.90;;
59998;SDS011;45859;51.378;6.736;2022-12-29T08:58:57;9.33;;;1.97;;
59998;SDS011;45859;51.378;6.736;2022-12-29T09:01:22;8.33;;;1.83;;
59998;SDS011;45859;51.378;6.736;2022-12-29T09:03:48;10.83;;;1.90;;
59998;SDS011;45859;51.378;6.736;2022-12-29T09:06:15;5.37;;;1.27;;
59998;SDS011;45859;51.378;6.736;2022-12-29T09:08:41;7.43;;;2.13;;
59998;SDS011;45859;51.378;6.736;2022-12-29T09:11:08;6.33;;;1.43;;
59998;SDS011;45859;51.378;6.736;2022-12-29T09:13:37;4.53;;;0.88;;
59998;SDS011;45859;51.378;6.736;2022-12-29T09:16:03;6.20;;;1.53;;
59998;SDS011;45859;51.378;6.736;2022-12-29T09:18:29;9.37;;;1.87;;
59998;SDS011;45859;51.378;6.736;2022-12-29T09:20:59;11.17;;;1.93;;
59998;SDS011;45859;51.378;6.736;2022-12-29T09:25:52;5.33;;;1.43;;
59998;SDS011;45859;51.378;6.736;2022-12-29T09:28:19;12.00;;;1.80;;
59998;SDS011;45859;51.378;6.736;2022-12-29T09:30:45;10.17;;;2.07;;
59998;SDS011;45859;51.378;6.736;2022-12-29T09:33:11;12.27;;;2.77;;
59998;SDS011;45859;51.378;6.736;2022-12-29T09:35:37;4.80;;;1.33;;
59998;SDS011;45859;51.378;6.736;2022-12-29T09:38:05;5.33;;;0.90;;
59998;SDS011;45859;51.378;6.736;2022-12-29T09:40:32;7.83;;;1.30;;
59998;SDS011;45859;51.378;6.736;2022-12-29T09:45:46;10.50;;;1.90;;
59998;SDS011;45859;51.378;6.736;2022-12-29T09:48:22;9.23;;;1.73;;
59998;SDS011;45859;51.378;6.736;2022-12-29T09:50:53;8.43;;;1.60;;
59998;SDS011;45859;51.378;6.736;2022-12-29T09:55:55;7.53;;;1.73;;
59998;SDS011;45859;51.378;6.736;2022-12-29T09:58:27;0.70;;;0.30;;
59998;SDS011;45859;51.378;6.736;2022-12-29T10:01:04;7.27;;;1.60;;
59998;SDS011;45859;51.378;6.736;2022-12-29T10:03:50;7.57;;;1.80;;
59998;SDS011;45859;51.378;6.736;2022-12-29T10:06:26;7.43;;;1.40;;
59998;SDS011;45859;51.378;6.736;2022-12-29T10:17:04;10.10;;;2.00;;
59998;SDS011;45859;51.378;6.736;2022-12-29T10:24:40;9.83;;;1.83;;
59998;SDS011;45859;51.378;6.736;2022-12-29T10:27:10;13.33;;;2.27;;
59998;SDS011;45859;51.378;6.736;2022-12-29T10:29:59;10.43;;;2.00;;
59998;SDS011;45859;51.378;6.736;2022-12-29T10:34:56;15.27;;;4.63;;
59998;SDS011;45859;51.378;6.736;2022-12-29T10:38:28;9.32;;;2.05;;
59998;SDS011;45859;51.378;6.736;2022-12-29T10:40:46;6.77;;;1.67;;
59998;SDS011;45859;51.378;6.736;2022-12-29T10:46:02;7.10;;;1.60;;
59998;SDS011;45859;51.378;6.736;2022-12-29T10:48:33;9.93;;;2.43;;
59998;SDS011;45859;51.378;6.736;2022-12-29T10:51:01;15.37;;;2.50;;
59998;SDS011;45859;51.378;6.736;2022-12-29T10:53:35;12.52;;;2.53;;
59998;SDS011;45859;51.378;6.736;2022-12-29T10:56:21;10.97;;;2.27;;
59998;SDS011;45859;51.378;6.736;2022-12-29T10:59:06;13.17;;;1.93;;
59998;SDS011;45859;51.378;6.736;2022-12-29T11:07:35;12.87;;;3.00;;
59998;SDS011;45859;51.378;6.736;2022-12-29T11:12:59;7.23;;;2.60;;
59998;SDS011;45859;51.378;6.736;2022-12-29T11:15:28;17.57;;;5.23;;
59998;SDS011;45859;51.378;6.736;2022-12-29T11:18:17;21.90;;;3.80;;
59998;SDS011;45859;51.378;6.736;2022-12-29T11:20:45;16.87;;;5.50;;
59998;SDS011;45859;51.378;6.736;2022-12-29T11:28:35;18.90;;;6.00;;
59998;SDS011;45859;51.378;6.736;2022-12-29T11:31:03;18.40;;;7.83;;
59998;SDS011;45859;51.378;6.736;2022-12-29T11:33:34;16.50;;;7.20;;
59998;SDS011;45859;51.378;6.736;2022-12-29T11:36:20;14.03;;;4.87;;
59998;SDS011;45859;51.378;6.736;2022-12-29T11:38:50;34.30;;;14.20;;
59998;SDS011;45859;51.378;6.736;2022-12-29T11:41:19;35.25;;;14.82;;
59998;SDS011;45859;51.378;6.736;2022-12-29T11:43:57;25.37;;;9.97;;
59998;SDS011;45859;51.378;6.736;2022-12-29T11:46:29;12.47;;;5.43;;
59998;SDS011;45859;51.378;6.736;2022-12-29T11:48:59;9.13;;;2.20;;
59998;SDS011;45859;51.378;6.736;2022-12-29T11:51:30;14.33;;;3.37;;
59998;SDS011;45859;51.378;6.736;2022-12-29T11:54:04;11.20;;;2.50;;
59998;SDS011;45859;51.378;6.736;2022-12-29T11:56:38;14.43;;;5.67;;
59998;SDS011;45859;51.378;6.736;2022-12-29T12:01:59;17.17;;;5.90;;
59998;SDS011;45859;51.378;6.736;2022-12-29T12:04:28;19.63;;;8.03;;
59998;SDS011;45859;51.378;6.736;2022-12-29T12:12:22;15.27;;;4.97;;
59998;SDS011;45859;51.378;6.736;2022-12-29T12:15:00;11.43;;;4.07;;
59998;SDS011;45859;51.378;6.736;2022-12-29T12:17:46;25.77;;;8.90;;
59998;SDS011;45859;51.378;6.736;2022-12-29T12:20:21;24.77;;;11.67;;
59998;SDS011;45859;51.378;6.736;2022-12-29T12:22:58;26.17;;;12.20;;
59998;SDS011;45859;51.378;6.736;2022-12-29T12:25:37;14.93;;;4.37;;
59998;SDS011;45859;51.378;6.736;2022-12-29T12:28:13;10.20;;;2.73;;
59998;SDS011;45859;51.378;6.736;2022-12-29T12:30:47;13.30;;;4.30;;
59998;SDS011;45859;51.378;6.736;2022-12-29T12:33:39;10.33;;;2.43;;
59998;SDS011;45859;51.378;6.736;2022-12-29T12:36:16;11.43;;;2.60;;
59998;SDS011;45859;51.378;6.736;2022-12-29T12:38:55;9.60;;;2.50;;
59998;SDS011;45859;51.378;6.736;2022-12-29T12:55:36;18.30;;;5.37;;
59998;SDS011;45859;51.378;6.736;2022-12-29T13:01:17;12.60;;;3.33;;
59998;SDS011;45859;51.378;6.736;2022-12-29T13:09:08;14.87;;;5.83;;
59998;SDS011;45859;51.378;6.736;2022-12-29T13:11:56;17.73;;;7.77;;
59998;SDS011;45859;51.378;6.736;2022-12-29T13:17:56;19.13;;;6.20;;
59998;SDS011;45859;51.378;6.736;2022-12-29T13:20:50;12.77;;;5.07;;
59998;SDS011;45859;51.378;6.736;2022-12-29T13:26:16;11.70;;;3.27;;
59998;SDS011;45859;51.378;6.736;2022-12-29T13:28:53;11.87;;;2.93;;
59998;SDS011;45859;51.378;6.736;2022-12-29T13:41:56;12.47;;;4.10;;
59998;SDS011;45859;51.378;6.736;2022-12-29T13:44:23;15.30;;;4.20;;
59998;SDS011;45859;51.378;6.736;2022-12-29T13:46:52;9.88;;;2.25;;
59998;SDS011;45859;51.378;6.736;2022-12-29T13:49:20;7.50;;;1.73;;
59998;SDS011;45859;51.378;6.736;2022-12-29T13:57:01;6.67;;;1.70;;
59998;SDS011;45859;51.378;6.736;2022-12-29T13:59:54;10.63;;;2.27;;
59998;SDS011;45859;51.378;6.736;2022-12-29T14:05:03;6.70;;;1.60;;
59998;SDS011;45859;51.378;6.736;2022-12-29T14:07:49;6.13;;;1.80;;
59998;SDS011;45859;51.378;6.736;2022-12-29T14:10:30;7.07;;;1.60;;
59998;SDS011;45859;51.378;6.736;2022-12-29T14:13:09;9.27;;;2.30;;
59998;SDS011;45859;51.378;6.736;2022-12-29T14:15:45;10.90;;;2.60;;
59998;SDS011;45859;51.378;6.736;2022-12-29T14:18:21;8.90;;;1.73;;
59998;SDS011;45859;51.378;6.736;2022-12-29T14:20:55;6.63;;;1.87;;
59998;SDS011;45859;51.378;6.736;2022-12-29T14:23:43;13.77;;;3.60;;
59998;SDS011;45859;51.378;6.736;2022-12-29T14:31:46;15.93;;;6.53;;
59998;SDS011;45859;51.378;6.736;2022-12-29T14:36:38;5.47;;;1.50;;
59998;SDS011;45859;51.378;6.736;2022-12-29T14:44:50;7.53;;;1.53;;
59998;SDS011;45859;51.378;6.736;2022-12-29T14:49:57;7.97;;;1.53;;
59998;SDS011;45859;51.378;6.736;2022-12-29T14:52:51;6.90;;;2.00;;
59998;SDS011;45859;51.378;6.736;2022-12-29T14:55:41;5.27;;;1.43;;
59998;SDS011;45859;51.378;6.736;2022-12-29T14:58:20;8.37;;;1.73;;
59998;SDS011;45859;51.378;6.736;2022-12-29T15:00:47;5.73;;;1.70;;
59998;SDS011;45859;51.378;6.736;2022-12-29T15:03:18;9.13;;;2.20;;
59998;SDS011;45859;51.378;6.736;2022-12-29T15:05:54;6.87;;;1.83;;
59998;SDS011;45859;51.378;6.736;2022-12-29T15:08:24;6.80;;;1.93;;
59998;SDS011;45859;51.378;6.736;2022-12-29T15:13:33;6.07;;;1.43;;
59998;SDS011;45859;51.378;6.736;2022-12-29T15:16:00;7.10;;;1.37;;
59998;SDS011;45859;51.378;6.736;2022-12-29T15:18:27;9.83;;;2.40;;
59998;SDS011;45859;51.378;6.736;2022-12-29T15:20:55;8.30;;;2.30;;
59998;SDS011;45859;51.378;6.736;2022-12-29T15:23:23;10.43;;;2.23;;
59998;SDS011;45859;51.378;6.736;2022-12-29T15:25:58;8.30;;;1.67;;
59998;SDS011;45859;51.378;6.736;2022-12-29T15:28:36;7.27;;;1.70;;
59998;SDS011;45859;51.378;6.736;2022-12-29T15:31:11;6.30;;;1.67;;
59998;SDS011;45859;51.378;6.736;2022-12-29T15:33:40;5.63;;;1.53;;
59998;SDS011;45859;51.378;6.736;2022-12-29T15:36:29;9.73;;;1.77;;
59998;SDS011;45859;51.378;6.736;2022-12-29T15:39:01;7.40;;;1.73;;
59998;SDS011;45859;51.378;6.736;2022-12-29T15:41:45;9.93;;;2.20;;
59998;SDS011;45859;51.378;6.736;2022-12-29T15:44:37;7.67;;;1.50;;
59998;SDS011;45859;51.378;6.736;2022-12-29T15:47:04;6.10;;;1.77;;
59998;SDS011;45859;51.378;6.736;2022-12-29T15:49:31;8.57;;;2.07;;
59998;SDS011;45859;51.378;6.736;2022-12-29T15:51:58;9.83;;;2.50;;
59998;SDS011;45859;51.378;6.736;2022-12-29T15:54:24;13.67;;;5.20;;
59998;SDS011;45859;51.378;6.736;2022-12-29T15:56:55;18.83;;;6.80;;
59998;SDS011;45859;51.378;6.736;2022-12-29T16:01:58;12.07;;;3.57;;
59998;SDS011;45859;51.378;6.736;2022-12-29T16:04:25;10.70;;;4.57;;
59998;SDS011;45859;51.378;6.736;2022-12-29T16:06:58;11.53;;;4.37;;
59998;SDS011;45859;51.378;6.736;2022-12-29T16:09:32;8.93;;;3.10;;
59998;SDS011;45859;51.378;6.736;2022-12-29T16:11:59;10.23;;;3.30;;
59998;SDS011;45859;51.378;6.736;2022-12-29T16:16:57;5.60;;;1.80;;
59998;SDS011;45859;51.378;6.736;2022-12-29T16:22:00;10.37;;;2.13;;
59998;SDS011;45859;51.378;6.736;2022-12-29T16:24:29;7.33;;;1.90;;
59998;SDS011;45859;51.378;6.736;2022-12-29T16:27:07;7.43;;;1.80;;
59998;SDS011;45859;51.378;6.736;2022-12-29T16:29:39;2.77;;;0.63;;
59998;SDS011;45859;51.378;6.736;2022-12-29T16:32:22;1.90;;;0.60;;
59998;SDS011;45859;51.378;6.736;2022-12-29T16:34:51;2.80;;;0.83;;
59998;SDS011;45859;51.378;6.736;2022-12-29T16:37:36;5.53;;;0.87;;
59998;SDS011;45859;51.378;6.736;2022-12-29T16:43:02;1.67;;;0.73;;
59998;SDS011;45859;51.378;6.736;2022-12-29T16:50:40;10.67;;;2.67;;
59998;SDS011;45859;51.378;6.736;2022-12-29T16:53:17;10.80;;;2.53;;
59998;SDS011;45859;51.378;6.736;2022-12-29T16:55:51;15.00;;;2.73;;
59998;SDS011;45859;51.378;6.736;2022-12-29T16:58:22;6.03;;;0.93;;
59998;SDS011;45859;51.378;6.736;2022-12-29T17:00:56;4.13;;;0.90;;
59998;SDS011;45859;51.378;6.736;2022-12-29T17:03:46;11.60;;;3.50;;
59998;SDS011;45859;51.378;6.736;2022-12-29T17:06:20;8.93;;;2.77;;
59998;SDS011;45859;51.378;6.736;2022-12-29T17:08:48;1.60;;;0.40;;
59998;SDS011;45859;51.378;6.736;2022-12-29T17:11:28;1.37;;;0.60;;
59998;SDS011;45859;51.378;6.736;2022-12-29T17:17:19;1.10;;;0.37;;
59998;SDS011;45859;51.378;6.736;2022-12-29T17:19:56;2.47;;;0.50;;
59998;SDS011;45859;51.378;6.736;2022-12-29T17:22:26;2.10;;;0.10;;
59998;SDS011;45859;51.378;6.736;2022-12-29T17:24:53;0.60;;;0.20;;
59998;SDS011;45859;51.378;6.736;2022-12-29T17:27:27;0.10;;;0.10;;
59998;SDS011;45859;51.378;6.736;2022-12-29T17:30:01;1.37;;;0.37;;
59998;SDS011;45859;51.378;6.736;2022-12-29T17:32:29;10.13;;;2.80;;
59998;SDS011;45859;51.378;6.736;2022-12-29T17:34:55;10.43;;;3.33;;
59998;SDS011;45859;51.378;6.736;2022-12-29T17:39:54;8.10;;;1.73;;
59998;SDS011;45859;51.378;6.736;2022-12-29T17:42:20;3.50;;;1.53;;
59998;SDS011;45859;51.378;6.736;2022-12-29T17:44:46;7.40;;;2.47;;
59998;SDS011;45859;51.378;6.736;2022-12-29T17:47:12;7.47;;;3.37;;
59998;SDS011;45859;51.378;6.736;2022-12-29T17:49:40;7.57;;;3.67;;
59998;SDS011;45859;51.378;6.736;2022-12-29T17:52:15;9.90;;;4.27;;
59998;SDS011;45859;51.378;6.736;2022-12-29T17:54:51;10.80;;;4.20;;
59998;SDS011;45859;51.378;6.736;2022-12-29T17:57:18;4.57;;;1.83;;